Time;durP1;ratioP1;P1;durP2;ratioP2;P2;SDS_P1;SDS_P2;PMS_P1;PMS_P2;Temp;Humidity;BMP_temperature;BMP_pressure;BME280_temperature;BME280_humidity;BME280_pressure;Samples;Min_cycle;Max_cycle;Signal;HPM_P1;HPM_P2
2023/12/03 00:00:43;;;;;;;43.47;21.52;;;0.40;99.90;;;;;;5079111;28;20382;-84
2023/12/03 00:03:11;;;;;;;48.08;22.10;;;0.40;99.90;;;;;;5029001;28;20394;-85
2023/12/03 00:05:37;;;;;;;52.70;26.10;;;0.40;99.90;;;;;;5027185;28;20028;-83
2023/12/03 00:08:03;;;;;;;52.33;25.50;;;0.40;99.90;;;;;;5047563;28;20057;-82
2023/12/03 00:10:30;;;;;;;50.15;24.92;;;0.40;99.90;;;;;;5078551;28;20028;-85
2023/12/03 00:12:56;;;;;;;48.50;23.25;;;0.40;99.90;;;;;;5078056;28;20040;-84
2023/12/03 00:15:22;;;;;;;44.95;22.85;;;0.40;99.90;;;;;;5060964;28;20032;-83
2023/12/03 00:17:51;;;;;;;50.17;24.77;;;0.30;99.90;;;;;;5061825;28;20036;-83
2023/12/03 00:20:17;;;;;;;44.47;22.98;;;0.30;99.90;;;;;;5064421;28;20026;-84
2023/12/03 00:22:43;;;;;;;41.45;19.23;;;0.40;99.90;;;;;;5028419;28;20409;-84
2023/12/03 00:25:09;;;;;;;35.65;17.70;;;0.30;99.90;;;;;;5061776;28;20116;-84
2023/12/03 00:27:35;;;;;;;39.33;18.75;;;0.30;99.90;;;;;;5078774;28;20056;-84
2023/12/03 00:30:00;;;;;;;42.45;18.98;;;0.30;99.90;;;;;;5043484;28;20476;-85
2023/12/03 00:32:26;;;;;;;38.55;17.45;;;0.30;99.90;;;;;;5063772;28;20061;-83
2023/12/03 00:34:52;;;;;;;49.35;23.52;;;0.30;99.90;;;;;;5075570;28;20116;-84
2023/12/03 00:37:17;;;;;;;47.70;22.52;;;0.30;99.90;;;;;;5062539;28;20497;-84
2023/12/03 00:39:43;;;;;;;60.40;28.27;;;0.20;99.90;;;;;;5045660;28;20033;-84
2023/12/03 00:42:09;;;;;;;46.60;21.60;;;0.20;99.90;;;;;;5044511;28;20414;-84
2023/12/03 00:44:34;;;;;;;52.10;22.10;;;0.20;99.90;;;;;;5062492;28;20389;-83
2023/12/03 00:47:00;;;;;;;43.63;19.90;;;0.20;99.90;;;;;;5065388;28;20037;-85
2023/12/03 00:49:26;;;;;;;42.90;21.20;;;0.20;99.90;;;;;;5063632;28;20074;-84
2023/12/03 00:51:51;;;;;;;38.35;18.02;;;0.20;99.90;;;;;;5064935;28;20481;-83
2023/12/03 00:54:17;;;;;;;40.13;19.45;;;0.20;99.90;;;;;;5077630;28;20025;-84
2023/12/03 00:56:43;;;;;;;47.90;20.85;;;0.30;99.90;;;;;;5076169;28;20090;-85
2023/12/03 00:59:08;;;;;;;37.15;17.42;;;0.20;99.90;;;;;;5064033;28;20416;-84
2023/12/03 01:01:34;;;;;;;39.10;17.15;;;0.20;99.90;;;;;;5060215;28;20052;-84
2023/12/03 01:04:00;;;;;;;41.60;18.55;;;0.20;99.90;;;;;;5026752;28;20038;-85
2023/12/03 01:06:26;;;;;;;40.58;18.27;;;0.20;99.90;;;;;;5065211;28;20020;-84
2023/12/03 01:08:52;;;;;;;45.33;19.30;;;0.30;99.90;;;;;;5043720;28;20045;-82
2023/12/03 01:11:18;;;;;;;51.88;22.95;;;0.30;99.90;;;;;;5075999;28;20072;-84
2023/12/03 01:13:43;;;;;;;41.50;18.40;;;0.20;99.90;;;;;;5076547;28;20033;-84
2023/12/03 01:16:16;;;;;;;44.22;20.40;;;0.30;99.90;;;;;;5025783;28;20037;-84
2023/12/03 01:18:42;;;;;;;44.15;19.40;;;0.30;99.90;;;;;;5058370;28;20033;-83
2023/12/03 01:21:08;;;;;;;37.75;16.70;;;0.30;99.90;;;;;;5077361;28;20087;-84
2023/12/03 01:23:34;;;;;;;40.45;17.02;;;0.30;99.90;;;;;;5062385;28;20037;-83
2023/12/03 01:25:59;;;;;;;33.45;15.05;;;0.30;99.90;;;;;;5027834;28;20028;-84
2023/12/03 01:28:25;;;;;;;32.15;13.70;;;0.30;99.90;;;;;;5028636;28;20528;-83
2023/12/03 01:30:50;;;;;;;35.90;14.57;;;0.30;99.90;;;;;;5027254;28;20033;-84
2023/12/03 01:33:16;;;;;;;43.83;16.85;;;0.30;99.90;;;;;;5058741;28;20035;-84
2023/12/03 01:35:42;;;;;;;32.95;14.23;;;0.40;99.90;;;;;;5063241;28;20094;-84
2023/12/03 01:38:07;;;;;;;33.53;13.40;;;0.30;99.90;;;;;;5077529;28;20098;-84
2023/12/03 01:40:33;;;;;;;32.67;10.88;;;0.40;99.90;;;;;;5062144;28;20199;-84
2023/12/03 01:42:59;;;;;;;51.55;18.02;;;0.40;99.90;;;;;;5061171;28;20040;-84
2023/12/03 01:45:25;;;;;;;47.53;16.83;;;0.40;99.90;;;;;;5025047;28;20171;-83
2023/12/03 01:47:51;;;;;;;50.60;20.30;;;0.40;99.90;;;;;;5064075;28;20128;-84
2023/12/03 01:50:19;;;;;;;51.88;19.80;;;0.40;99.90;;;;;;5026253;28;20498;-84
2023/12/03 01:52:45;;;;;;;48.63;19.13;;;0.40;99.90;;;;;;5077014;28;20071;-83
2023/12/03 01:55:18;;;;;;;54.83;20.23;;;0.40;99.90;;;;;;5063428;28;20021;-84
2023/12/03 01:57:44;;;;;;;42.13;15.68;;;0.40;99.90;;;;;;5026194;28;20048;-83
2023/12/03 02:00:10;;;;;;;48.35;17.73;;;0.40;99.90;;;;;;5027259;28;20053;-84
2023/12/03 02:02:40;;;;;;;51.55;20.15;;;0.40;99.90;;;;;;5058094;28;20045;-84
2023/12/03 02:05:08;;;;;;;46.63;20.02;;;0.40;99.90;;;;;;5026116;28;20124;-83
2023/12/03 02:07:33;;;;;;;40.25;16.05;;;0.50;99.90;;;;;;5025095;28;20026;-84
2023/12/03 02:09:59;;;;;;;60.08;22.25;;;0.50;99.90;;;;;;5042391;28;20026;-84
2023/12/03 02:12:26;;;;;;;61.35;24.58;;;0.50;99.90;;;;;;5043520;28;20025;-83
2023/12/03 02:14:51;;;;;;;57.63;23.15;;;0.50;99.90;;;;;;5057222;28;20045;-83
2023/12/03 02:17:17;;;;;;;44.33;19.23;;;0.50;99.90;;;;;;5063007;28;20029;-83
2023/12/03 02:19:42;;;;;;;48.65;19.95;;;0.50;99.90;;;;;;5043720;28;20040;-85
2023/12/03 02:22:08;;;;;;;51.75;20.35;;;0.50;99.90;;;;;;5025733;28;20033;-81
2023/12/03 02:24:34;;;;;;;52.63;22.10;;;0.50;99.90;;;;;;5058327;28;20033;-84
2023/12/03 02:27:00;;;;;;;51.28;19.92;;;0.50;99.90;;;;;;5041791;28;20026;-84
2023/12/03 02:29:25;;;;;;;47.22;18.63;;;0.60;99.90;;;;;;5076567;28;20386;-83
2023/12/03 02:31:51;;;;;;;38.22;15.52;;;0.60;99.90;;;;;;5061821;28;20090;-82
2023/12/03 02:34:17;;;;;;;42.42;16.27;;;0.60;99.90;;;;;;5042802;28;20060;-83
2023/12/03 02:36:42;;;;;;;45.50;17.30;;;0.60;99.90;;;;;;5059389;28;20072;-83
2023/12/03 02:39:08;;;;;;;39.17;14.05;;;0.70;99.90;;;;;;5025616;28;20236;-84
2023/12/03 02:41:34;;;;;;;29.63;12.52;;;0.70;99.90;;;;;;5056213;28;20026;-83
2023/12/03 02:43:59;;;;;;;28.13;10.93;;;0.70;99.90;;;;;;5063908;28;20033;-84
2023/12/03 02:46:25;;;;;;;25.92;10.25;;;0.70;99.90;;;;;;5062175;28;20374;-83
2023/12/03 02:48:51;;;;;;;22.73;8.63;;;0.70;99.90;;;;;;5076487;28;20355;-83
2023/12/03 02:51:17;;;;;;;26.33;10.90;;;0.70;99.90;;;;;;5074037;28;20036;-85
2023/12/03 02:53:46;;;;;;;28.23;11.82;;;0.70;99.90;;;;;;5042850;28;20039;-84
2023/12/03 02:56:12;;;;;;;38.88;15.00;;;0.70;99.90;;;;;;5061602;28;20477;-83
2023/12/03 02:58:39;;;;;;;30.23;12.23;;;0.80;99.90;;;;;;5079835;28;20045;-84
2023/12/03 03:01:05;;;;;;;39.38;15.27;;;0.80;99.90;;;;;;5079820;28;20103;-83
2023/12/03 03:03:31;;;;;;;29.98;12.38;;;0.80;99.90;;;;;;5066486;28;20508;-84
2023/12/03 03:05:57;;;;;;;36.08;14.52;;;0.90;99.90;;;;;;5028570;28;20032;-83
2023/12/03 03:08:23;;;;;;;34.25;14.18;;;0.90;99.90;;;;;;5066785;28;20029;-85
2023/12/03 03:10:48;;;;;;;29.05;12.27;;;0.90;99.90;;;;;;5028005;28;20029;-83
2023/12/03 03:13:14;;;;;;;32.72;13.07;;;1.00;99.90;;;;;;5028168;28;20056;-84
2023/12/03 03:15:39;;;;;;;23.13;11.18;;;1.00;99.90;;;;;;5078705;28;20410;-84
2023/12/03 03:18:05;;;;;;;26.83;11.32;;;1.00;99.90;;;;;;5061759;28;20033;-83
2023/12/03 03:20:31;;;;;;;35.35;14.82;;;1.00;99.90;;;;;;5047045;28;20460;-84
2023/12/03 03:22:56;;;;;;;33.33;13.73;;;1.10;99.90;;;;;;5066271;28;20511;-84
2023/12/03 03:25:22;;;;;;;41.35;16.60;;;1.10;99.90;;;;;;5066227;28;20114;-83
2023/12/03 03:27:48;;;;;;;41.80;18.35;;;1.10;99.90;;;;;;5076880;28;20678;-82
2023/12/03 03:30:14;;;;;;;34.90;15.82;;;1.10;99.90;;;;;;5065775;28;20040;-83
2023/12/03 03:32:39;;;;;;;34.47;15.57;;;1.10;99.90;;;;;;5060854;28;20053;-83
2023/12/03 03:35:05;;;;;;;36.47;16.17;;;1.10;99.90;;;;;;5027131;28;20076;-84
2023/12/03 03:37:31;;;;;;;45.47;19.30;;;1.10;99.90;;;;;;5078307;28;20289;-84
2023/12/03 03:39:57;;;;;;;45.97;22.52;;;1.10;99.90;;;;;;5028076;28;20417;-83
2023/12/03 03:42:22;;;;;;;46.20;21.65;;;1.20;99.90;;;;;;5048466;28;20063;-84
2023/12/03 03:44:49;;;;;;;47.53;21.33;;;1.20;99.90;;;;;;5076868;28;20501;-84
2023/12/03 03:47:15;;;;;;;37.85;18.15;;;1.20;99.90;;;;;;5066557;28;20043;-83
2023/12/03 03:49:41;;;;;;;48.70;24.08;;;1.20;99.90;;;;;;5045680;28;20411;-83
2023/12/03 03:52:07;;;;;;;42.00;21.10;;;1.20;99.90;;;;;;5065707;28;20040;-83
2023/12/03 03:54:32;;;;;;;37.00;17.55;;;1.20;99.90;;;;;;5064023;28;20032;-83
2023/12/03 03:56:58;;;;;;;38.38;19.67;;;1.20;99.90;;;;;;5063204;28;20022;-84
2023/12/03 03:59:25;;;;;;;37.95;18.73;;;1.30;99.90;;;;;;5029362;28;20380;-83
2023/12/03 04:01:51;;;;;;;37.70;18.13;;;1.20;99.90;;;;;;5066094;28;20033;-84
2023/12/03 04:04:17;;;;;;;46.30;22.85;;;1.30;99.90;;;;;;5079006;28;20029;-84
2023/12/03 04:06:44;;;;;;;36.42;19.55;;;1.30;99.90;;;;;;5028136;28;20052;-85
2023/12/03 04:09:11;;;;;;;32.60;16.10;;;1.30;99.90;;;;;;5061891;28;20040;-84
2023/12/03 04:11:41;;;;;;;32.90;16.48;;;1.30;99.90;;;;;;5025427;28;20043;-84
2023/12/03 04:14:08;;;;;;;29.42;14.07;;;1.30;99.90;;;;;;5076695;28;20035;-83
2023/12/03 04:16:37;;;;;;;27.08;13.70;;;1.30;99.90;;;;;;5027150;28;20057;-83
2023/12/03 04:19:03;;;;;;;26.38;12.52;;;1.30;99.90;;;;;;5061088;28;20033;-84
2023/12/03 04:21:29;;;;;;;25.17;12.90;;;1.30;99.90;;;;;;5064621;28;20021;-84
2023/12/03 04:23:59;;;;;;;23.42;11.70;;;1.30;99.90;;;;;;5044798;28;20401;-83
2023/12/03 04:26:25;;;;;;;25.25;12.15;;;1.30;99.90;;;;;;5026870;28;20086;-84
2023/12/03 04:28:52;;;;;;;22.60;11.95;;;1.30;99.90;;;;;;5028030;28;20056;-83
2023/12/03 04:31:23;;;;;;;22.33;11.00;;;1.30;99.90;;;;;;5065213;28;20377;-83
2023/12/03 04:33:53;;;;;;;26.80;12.15;;;1.30;99.90;;;;;;5060463;28;20033;-82
2023/12/03 04:36:21;;;;;;;;;;;1.30;99.90;;;;;;5025021;28;20028;-83
2023/12/03 04:38:47;;;;;;;18.35;9.57;;;1.30;99.90;;;;;;5059905;28;19909;-83
2023/12/03 04:41:13;;;;;;;19.95;10.13;;;1.30;99.90;;;;;;5078718;28;20025;-84
2023/12/03 04:43:39;;;;;;;21.02;10.55;;;1.30;99.90;;;;;;5043101;28;20037;-84
2023/12/03 04:46:05;;;;;;;22.13;12.00;;;1.20;99.90;;;;;;5045170;28;20101;-85
2023/12/03 04:48:32;;;;;;;19.52;9.48;;;1.30;99.90;;;;;;5044945;28;20028;-84
2023/12/03 04:50:58;;;;;;;18.83;10.63;;;1.20;99.90;;;;;;5064886;28;20033;-84
2023/12/03 04:53:24;;;;;;;21.48;11.45;;;1.30;99.90;;;;;;5064067;28;20059;-83
2023/12/03 04:55:49;;;;;;;18.67;9.65;;;1.20;99.90;;;;;;5060373;28;20033;-84
2023/12/03 04:58:15;;;;;;;21.00;10.93;;;1.20;99.90;;;;;;5079980;28;20036;-83
2023/12/03 05:00:41;;;;;;;20.33;10.20;;;1.20;99.90;;;;;;5028098;28;20047;-84
2023/12/03 05:03:06;;;;;;;16.35;9.77;;;1.20;99.90;;;;;;5024299;28;20159;-84
2023/12/03 05:05:32;;;;;;;20.63;11.23;;;1.20;99.90;;;;;;5063576;28;20056;-82
2023/12/03 05:07:58;;;;;;;17.58;8.68;;;1.20;99.90;;;;;;5077318;28;20136;-82
2023/12/03 05:10:23;;;;;;;20.08;10.07;;;1.20;99.90;;;;;;5027133;28;20540;-83
2023/12/03 05:12:49;;;;;;;16.50;8.77;;;1.20;99.90;;;;;;5062048;28;20120;-84
2023/12/03 05:15:15;;;;;;;17.92;8.90;;;1.20;99.90;;;;;;5054273;28;20017;-84
2023/12/03 05:17:40;;;;;;;17.58;9.10;;;1.30;99.90;;;;;;5026964;28;20025;-84
2023/12/03 05:20:06;;;;;;;15.90;8.90;;;1.30;99.90;;;;;;5043761;28;20058;-83
2023/12/03 05:22:33;;;;;;;18.92;9.45;;;1.30;99.90;;;;;;5075413;28;20029;-83
2023/12/03 05:24:58;;;;;;;16.08;8.73;;;1.20;99.90;;;;;;5027080;28;20029;-82
2023/12/03 05:27:24;;;;;;;18.10;8.80;;;1.30;99.90;;;;;;5043361;28;20106;-83
2023/12/03 05:29:50;;;;;;;18.17;9.57;;;1.20;99.90;;;;;;5062984;28;20024;-82
2023/12/03 05:32:16;;;;;;;21.75;11.02;;;1.20;99.90;;;;;;5063129;28;20372;-83
2023/12/03 05:34:45;;;;;;;20.08;10.05;;;1.20;99.90;;;;;;5076919;28;20033;-83
2023/12/03 05:37:12;;;;;;;14.00;8.23;;;1.20;99.90;;;;;;5043290;28;20029;-83
2023/12/03 05:39:41;;;;;;;16.73;8.88;;;1.20;99.90;;;;;;5077940;28;20037;-83
2023/12/03 05:42:06;;;;;;;24.00;12.10;;;1.20;99.90;;;;;;5056205;28;20041;-82
2023/12/03 05:44:33;;;;;;;21.23;10.43;;;1.10;99.90;;;;;;5026329;28;20106;-83
2023/12/03 05:46:59;;;;;;;19.70;10.15;;;1.10;99.90;;;;;;5062026;28;20033;-83
2023/12/03 05:49:25;;;;;;;23.10;11.85;;;1.10;99.90;;;;;;5062335;28;20033;-83
2023/12/03 05:51:50;;;;;;;19.90;10.80;;;1.10;99.90;;;;;;5074996;28;20025;-84
2023/12/03 05:54:16;;;;;;;23.42;11.30;;;1.00;99.90;;;;;;5027610;28;20028;-84
2023/12/03 05:56:45;;;;;;;20.98;10.60;;;1.10;99.90;;;;;;5062406;28;20025;-82
2023/12/03 05:59:12;;;;;;;26.02;11.57;;;1.00;99.90;;;;;;5074311;28;20028;-83
2023/12/03 06:01:37;;;;;;;22.77;12.05;;;1.00;99.90;;;;;;5062484;28;20042;-84
2023/12/03 06:04:06;;;;;;;17.95;9.40;;;1.00;99.90;;;;;;5075675;28;20094;-83
2023/12/03 06:06:33;;;;;;;21.80;9.98;;;0.90;99.90;;;;;;5028372;28;20413;-83
2023/12/03 06:08:59;;;;;;;18.73;9.80;;;0.90;99.90;;;;;;5058802;28;20018;-84
2023/12/03 06:11:26;;;;;;;22.50;11.00;;;0.80;99.90;;;;;;5062451;28;20610;-83
2023/12/03 06:13:53;;;;;;;21.10;11.10;;;0.70;99.90;;;;;;5074687;28;20029;-84
2023/12/03 06:16:19;;;;;;;21.98;10.38;;;0.60;99.90;;;;;;5026666;28;20087;-83
2023/12/03 06:18:45;;;;;;;18.30;9.45;;;0.50;99.90;;;;;;5061353;28;20025;-84
2023/12/03 06:21:10;;;;;;;21.08;10.52;;;0.50;99.90;;;;;;5042810;28;20052;-84
2023/12/03 06:23:36;;;;;;;21.77;10.70;;;0.30;99.90;;;;;;5043460;28;20037;-82
2023/12/03 06:26:02;;;;;;;17.92;8.85;;;0.30;99.90;;;;;;5040817;28;20130;-84
2023/12/03 06:28:28;;;;;;;17.30;9.45;;;0.30;99.90;;;;;;5043908;28;20158;-84
2023/12/03 06:30:53;;;;;;;18.85;9.68;;;0.20;99.90;;;;;;5027673;28;20028;-84
2023/12/03 06:33:19;;;;;;;21.23;9.63;;;0.20;99.90;;;;;;5046721;28;20472;-82
2023/12/03 06:35:45;;;;;;;21.42;11.60;;;0.20;99.90;;;;;;5062929;28;20370;-83
2023/12/03 06:38:11;;;;;;;19.70;9.63;;;0.10;99.90;;;;;;5067495;28;20035;-82
2023/12/03 06:40:36;;;;;;;19.15;9.55;;;0.10;99.90;;;;;;5027816;28;20101;-83
2023/12/03 06:43:02;;;;;;;17.10;8.88;;;0.10;99.90;;;;;;5028616;28;20475;-82
2023/12/03 06:45:28;;;;;;;18.70;9.10;;;0.00;99.90;;;;;;5081291;28;20025;-82
2023/12/03 06:47:53;;;;;;;25.25;11.77;;;0.00;99.90;;;;;;5080174;28;20641;-84
2023/12/03 06:50:19;;;;;;;21.98;9.77;;;0.00;99.90;;;;;;5059481;28;20589;-82
2023/12/03 06:52:45;;;;;;;20.95;10.07;;;-0.20;99.90;;;;;;5064640;28;20056;-84
2023/12/03 06:55:12;;;;;;;19.67;9.70;;;-0.20;99.90;;;;;;5078502;28;20027;-83
2023/12/03 06:57:38;;;;;;;21.25;10.18;;;-0.20;99.90;;;;;;5078646;28;20091;-83
2023/12/03 07:00:06;;;;;;;20.10;9.63;;;-0.20;99.90;;;;;;5061758;28;20038;-83
2023/12/03 07:02:32;;;;;;;19.98;9.35;;;-0.20;99.90;;;;;;5044280;28;20481;-83
2023/12/03 07:04:58;;;;;;;22.73;10.98;;;-0.20;99.90;;;;;;5044421;28;20086;-82
2023/12/03 07:07:23;;;;;;;23.60;11.55;;;-0.30;99.90;;;;;;5076746;28;20037;-82
2023/12/03 07:09:49;;;;;;;26.40;10.88;;;-0.30;99.90;;;;;;5065741;28;20025;-81
2023/12/03 07:12:15;;;;;;;25.65;11.93;;;-0.40;99.90;;;;;;5064890;28;20458;-84
2023/12/03 07:14:40;;;;;;;28.48;12.52;;;-0.40;99.90;;;;;;5065928;28;20029;-83
2023/12/03 07:17:06;;;;;;;26.13;11.43;;;-0.40;99.90;;;;;;5044688;28;20033;-83
2023/12/03 07:19:32;;;;;;;24.25;11.27;;;-0.40;99.90;;;;;;5026510;28;20063;-83
2023/12/03 07:21:58;;;;;;;25.38;10.77;;;-0.40;99.90;;;;;;5059722;28;20120;-83
2023/12/03 07:24:23;;;;;;;25.42;13.02;;;-0.50;99.90;;;;;;5044485;28;20029;-82
2023/12/03 07:26:49;;;;;;;28.45;12.13;;;-0.50;99.90;;;;;;5064310;28;20061;-82
2023/12/03 07:29:17;;;;;;;19.73;9.52;;;-0.50;99.90;;;;;;5060936;28;20029;-83
2023/12/03 07:31:43;;;;;;;24.95;10.77;;;-0.50;99.90;;;;;;5045180;28;20040;-83
2023/12/03 07:34:09;;;;;;;22.40;9.05;;;-0.50;99.90;;;;;;5026419;28;20025;-83
2023/12/03 07:36:35;;;;;;;22.83;10.48;;;-0.60;99.90;;;;;;5027868;28;20032;-81
2023/12/03 07:39:00;;;;;;;20.83;10.27;;;-0.60;99.90;;;;;;5045484;28;20038;-83
2023/12/03 07:41:26;;;;;;;23.90;9.23;;;-0.60;99.90;;;;;;5061713;28;20028;-84
2023/12/03 07:43:51;;;;;;;23.83;10.02;;;-0.60;99.90;;;;;;5060942;28;20082;-84
2023/12/03 07:46:18;;;;;;;23.10;8.60;;;-0.60;99.90;;;;;;5075655;28;20070;-83
2023/12/03 07:48:44;;;;;;;20.98;8.70;;;-0.60;99.90;;;;;;5029573;28;20025;-84
2023/12/03 07:51:10;;;;;;;25.35;8.57;;;-0.60;99.90;;;;;;5076593;28;20469;-83
2023/12/03 07:53:36;;;;;;;21.95;9.13;;;-0.60;99.90;;;;;;5079552;28;20100;-83
2023/12/03 07:56:03;;;;;;;21.30;8.70;;;-0.60;99.90;;;;;;5063246;28;20117;-84
2023/12/03 07:58:29;;;;;;;19.73;8.18;;;-0.50;99.90;;;;;;5058217;28;20040;-84
2023/12/03 08:00:55;;;;;;;19.45;9.57;;;-0.50;99.90;;;;;;5027148;28;20044;-83
2023/12/03 08:03:20;;;;;;;22.60;9.70;;;-0.40;99.90;;;;;;5064486;28;20128;-83
2023/12/03 08:05:46;;;;;;;21.73;9.23;;;-0.40;99.90;;;;;;5044262;28;20521;-84
2023/12/03 08:08:12;;;;;;;22.85;10.85;;;-0.40;99.90;;;;;;5064290;28;20044;-83
2023/12/03 08:10:38;;;;;;;28.83;11.75;;;-0.50;99.90;;;;;;5075545;28;20026;-84
2023/12/03 08:13:03;;;;;;;23.67;10.18;;;-0.50;99.90;;;;;;5065660;28;20029;-83
2023/12/03 08:15:29;;;;;;;22.80;9.27;;;-0.50;99.90;;;;;;5029962;28;20052;-85
2023/12/03 08:17:54;;;;;;;20.10;7.70;;;-0.50;99.90;;;;;;5024399;28;20039;-84
2023/12/03 08:20:20;;;;;;;17.20;7.38;;;-0.50;99.90;;;;;;5028842;28;20021;-83
2023/12/03 08:22:46;;;;;;;24.17;10.10;;;-0.50;99.90;;;;;;5027449;28;20055;-84
2023/12/03 08:25:12;;;;;;;18.70;8.07;;;-0.40;99.90;;;;;;5025982;28;20044;-85
2023/12/03 08:27:37;;;;;;;18.55;6.40;;;-0.40;99.90;;;;;;5065268;28;20029;-84
2023/12/03 08:30:03;;;;;;;19.33;8.20;;;-0.40;99.90;;;;;;5057545;28;20022;-85
2023/12/03 08:32:29;;;;;;;18.95;7.65;;;-0.40;99.90;;;;;;5028308;28;20052;-84
2023/12/03 08:34:55;;;;;;;16.73;6.65;;;-0.40;99.90;;;;;;5064842;28;20044;-84
2023/12/03 08:37:20;;;;;;;19.30;7.40;;;-0.40;99.90;;;;;;5042678;28;20745;-86
2023/12/03 08:39:46;;;;;;;18.13;7.10;;;-0.40;99.90;;;;;;5075116;28;20500;-84
2023/12/03 08:42:11;;;;;;;17.90;7.90;;;-0.40;99.90;;;;;;5030252;28;20036;-84
2023/12/03 08:44:37;;;;;;;16.40;6.13;;;-0.30;99.90;;;;;;5055195;28;20025;-85
2023/12/03 08:47:04;;;;;;;14.30;5.55;;;-0.30;99.90;;;;;;5028702;28;20041;-84
2023/12/03 08:49:29;;;;;;;17.05;7.20;;;-0.20;99.90;;;;;;5064483;28;20047;-85
2023/12/03 08:51:55;;;;;;;21.27;8.88;;;-0.20;99.90;;;;;;5064112;28;20500;-85
2023/12/03 08:54:21;;;;;;;20.92;8.45;;;-0.20;99.90;;;;;;5028565;28;20328;-85
2023/12/03 08:56:47;;;;;;;20.02;8.55;;;-0.10;99.90;;;;;;5022385;28;20043;-85
2023/12/03 08:59:12;;;;;;;22.58;8.82;;;0.00;99.90;;;;;;5059950;28;20025;-85
2023/12/03 09:01:41;;;;;;;15.70;7.18;;;0.00;99.90;;;;;;5054965;28;20048;-85
2023/12/03 09:04:07;;;;;;;23.08;10.50;;;0.10;99.90;;;;;;5071386;28;20044;-85
2023/12/03 09:06:32;;;;;;;26.83;10.77;;;0.10;99.90;;;;;;5054689;28;20029;-85
2023/12/03 09:08:58;;;;;;;22.90;9.20;;;0.20;99.90;;;;;;5058212;28;20068;-85
2023/12/03 09:11:24;;;;;;;21.52;9.93;;;0.20;99.90;;;;;;5050686;28;20056;-85
2023/12/03 09:13:50;;;;;;;24.38;8.88;;;0.30;99.90;;;;;;5059206;28;20028;-86
2023/12/03 09:16:15;;;;;;;18.33;8.32;;;0.30;99.90;;;;;;5068504;28;20113;-85
2023/12/03 09:18:41;;;;;;;23.98;10.52;;;0.40;99.90;;;;;;5038131;28;20258;-85
2023/12/03 09:21:13;;;;;;;23.33;8.52;;;0.40;99.90;;;;;;5060367;28;20027;-84
2023/12/03 09:23:39;;;;;;;24.88;10.18;;;0.50;99.90;;;;;;5056347;28;20037;-86
2023/12/03 09:26:05;;;;;;;27.10;12.80;;;0.60;99.90;;;;;;5070629;28;20136;-86
2023/12/03 09:28:32;;;;;;;27.00;11.43;;;0.60;99.90;;;;;;5060148;28;20037;-87
2023/12/03 09:30:58;;;;;;;24.80;10.43;;;0.70;99.90;;;;;;5052127;28;20033;-86
2023/12/03 09:33:26;;;;;;;21.00;8.70;;;0.80;99.90;;;;;;5054363;28;20156;-85
2023/12/03 09:35:53;;;;;;;21.63;9.98;;;0.80;99.90;;;;;;5059752;28;20558;-85
2023/12/03 09:38:20;;;;;;;27.42;12.85;;;0.80;99.90;;;;;;5055907;28;20037;-86
2023/12/03 09:40:47;;;;;;;27.67;12.93;;;0.80;99.90;;;;;;5054331;28;20084;-84
2023/12/03 09:43:17;;;;;;;28.10;11.88;;;0.80;99.90;;;;;;5071432;28;20033;-84
2023/12/03 09:45:44;;;;;;;25.45;11.07;;;0.80;99.90;;;;;;5059798;28;20037;-84
2023/12/03 09:48:12;;;;;;;21.75;10.35;;;0.90;99.90;;;;;;5053619;28;20510;-85
2023/12/03 09:50:39;;;;;;;27.67;12.15;;;0.90;99.90;;;;;;5055541;28;20041;-84
2023/12/03 09:53:09;;;;;;;24.48;11.35;;;0.80;99.90;;;;;;5068312;28;20033;-83
2023/12/03 09:55:38;;;;;;;21.85;9.80;;;0.90;99.90;;;;;;5069465;28;20484;-85
2023/12/03 09:58:04;;;;;;;19.95;8.93;;;1.10;99.90;;;;;;5072278;28;20496;-84
2023/12/03 10:00:31;;;;;;;19.42;9.05;;;1.30;99.90;;;;;;5070788;28;20045;-84
2023/12/03 10:02:57;;;;;;;20.70;9.35;;;1.30;99.90;;;;;;5052449;28;20041;-83
2023/12/03 10:05:22;;;;;;;23.25;10.48;;;1.30;99.90;;;;;;5069844;28;20029;-84
2023/12/03 10:07:51;;;;;;;24.05;10.27;;;1.30;99.90;;;;;;5050131;28;20033;-84
2023/12/03 10:10:19;;;;;;;23.05;10.70;;;1.40;99.90;;;;;;5066935;28;20029;-85
2023/12/03 10:12:47;;;;;;;27.48;13.48;;;1.30;99.90;;;;;;5035343;28;20271;-85
2023/12/03 10:15:13;;;;;;;27.10;13.40;;;1.40;99.90;;;;;;5052121;28;20036;-83
2023/12/03 10:17:39;;;;;;;24.52;11.63;;;1.30;99.90;;;;;;5054200;28;20103;-85
2023/12/03 10:20:28;;;;;;;20.35;9.27;;;1.30;99.90;;;;;;5054725;28;20044;-83
2023/12/03 10:22:58;;;;;;;20.45;9.15;;;1.30;99.90;;;;;;5054059;28;20093;-84
2023/12/03 10:25:35;;;;;;;27.02;12.02;;;1.20;99.90;;;;;;5069992;28;20028;-82
2023/12/03 10:28:03;;;;;;;22.52;9.73;;;1.10;99.90;;;;;;5051071;28;20052;-83
2023/12/03 10:30:29;;;;;;;21.40;8.85;;;1.10;99.90;;;;;;5051074;28;20083;-83
2023/12/03 10:32:55;;;;;;;24.52;11.55;;;1.10;99.90;;;;;;5054038;28;20044;-83
2023/12/03 10:35:22;;;;;;;18.63;8.70;;;1.00;99.90;;;;;;5056402;28;20527;-83
2023/12/03 10:37:48;;;;;;;18.88;8.95;;;1.10;99.90;;;;;;5050448;28;20049;-83
2023/12/03 10:40:14;;;;;;;19.48;9.20;;;1.20;99.90;;;;;;5054436;28;20033;-83
2023/12/03 10:42:40;;;;;;;25.27;11.23;;;1.20;99.90;;;;;;5056763;28;20039;-82
2023/12/03 10:45:07;;;;;;;24.70;10.57;;;1.30;99.90;;;;;;5023628;28;20033;-81
2023/12/03 10:47:34;;;;;;;18.45;9.02;;;1.30;99.90;;;;;;5067925;28;20079;-82
2023/12/03 10:50:02;;;;;;;21.83;9.80;;;1.40;99.90;;;;;;5018221;28;20470;-82
2023/12/03 10:52:30;;;;;;;22.60;11.00;;;1.40;99.90;;;;;;5051327;28;20078;-82
2023/12/03 10:54:56;;;;;;;18.70;9.52;;;1.30;99.90;;;;;;5067593;28;20474;-82
2023/12/03 10:57:26;;;;;;;20.05;9.27;;;1.40;99.90;;;;;;5019735;28;20029;-82
2023/12/03 10:59:58;;;;;;;18.38;8.90;;;1.50;99.90;;;;;;5067054;28;20041;-82
2023/12/03 11:02:29;;;;;;;25.45;11.63;;;1.60;99.90;;;;;;5034901;28;20052;-82
2023/12/03 11:05:05;;;;;;;22.02;10.80;;;1.70;99.90;;;;;;5051311;28;20032;-82
2023/12/03 11:07:33;;;;;;;25.33;12.35;;;1.80;99.90;;;;;;5032952;28;20047;-81
2023/12/03 11:09:59;;;;;;;23.48;10.98;;;1.90;99.90;;;;;;5068508;28;20029;-82
2023/12/03 11:12:24;;;;;;;18.80;9.10;;;1.90;99.90;;;;;;5022417;28;20113;-82
2023/12/03 11:14:54;;;;;;;18.33;8.38;;;2.00;99.90;;;;;;5054491;28;20029;-82
2023/12/03 11:17:31;;;;;;;22.27;10.15;;;2.10;99.90;;;;;;5056887;28;20418;-82
2023/12/03 11:20:04;;;;;;;25.15;11.73;;;2.10;99.90;;;;;;5053008;28;20033;-81
2023/12/03 11:22:39;;;;;;;21.13;9.40;;;2.10;99.90;;;;;;5070901;28;20072;-81
2023/12/03 11:25:13;;;;;;;22.85;10.45;;;2.20;99.90;;;;;;5073858;28;20028;-81
2023/12/03 11:27:43;;;;;;;21.70;9.95;;;2.20;99.90;;;;;;5054935;28;20032;-82
2023/12/03 11:30:10;;;;;;;22.85;9.38;;;2.20;99.90;;;;;;5055216;28;20040;-82
2023/12/03 11:32:36;;;;;;;20.35;9.50;;;2.20;99.90;;;;;;5039979;28;20040;-82
2023/12/03 11:35:06;;;;;;;20.55;9.93;;;2.20;99.90;;;;;;5052736;28;20420;-83
2023/12/03 11:37:32;;;;;;;21.83;9.98;;;2.30;99.90;;;;;;5052004;28;20475;-82
2023/12/03 11:40:34;;;;;;;18.08;8.52;;;2.30;99.90;;;;;;5070684;28;20815;-81
2023/12/03 11:43:00;;;;;;;22.17;9.60;;;2.30;99.90;;;;;;5041404;28;20041;-81
2023/12/03 11:45:27;;;;;;;20.55;9.00;;;2.20;99.90;;;;;;5062501;28;20030;-82
2023/12/03 11:48:05;;;;;;;21.92;11.13;;;2.20;99.90;;;;;;5054849;28;20033;-82
2023/12/03 11:50:33;;;;;;;21.63;10.15;;;2.10;99.90;;;;;;5037257;28;20120;-81
2023/12/03 11:52:59;;;;;;;20.10;9.23;;;2.20;99.90;;;;;;5039268;28;20714;-82
2023/12/03 11:55:26;;;;;;;20.23;8.55;;;2.20;99.90;;;;;;5034570;28;20036;-82
2023/12/03 11:57:54;;;;;;;17.70;7.82;;;2.20;99.90;;;;;;5036175;28;20412;-82
2023/12/03 12:00:20;;;;;;;18.63;8.25;;;2.30;99.90;;;;;;5069348;28;20067;-82
2023/12/03 12:02:45;;;;;;;19.88;9.73;;;2.40;99.90;;;;;;5072937;28;20068;-82
2023/12/03 12:05:11;;;;;;;24.38;11.35;;;2.50;99.90;;;;;;5071652;28;20623;-81
2023/12/03 12:07:37;;;;;;;16.38;8.00;;;2.50;99.90;;;;;;5060436;28;20392;-82
2023/12/03 12:10:05;;;;;;;18.15;8.75;;;2.60;99.90;;;;;;5070101;28;20572;-83
2023/12/03 12:12:30;;;;;;;21.48;10.10;;;2.60;99.90;;;;;;5052586;28;20024;-81
2023/12/03 12:14:56;;;;;;;17.45;8.05;;;2.50;95.80;;;;;;5067341;28;20492;-81
2023/12/03 12:17:22;;;;;;;16.45;8.50;;;2.60;95.90;;;;;;5069432;28;20022;-81
2023/12/03 12:19:48;;;;;;;15.60;7.80;;;2.60;93.70;;;;;;5057564;28;20334;-83
2023/12/03 12:22:15;;;;;;;21.42;9.02;;;2.70;92.70;;;;;;5055866;28;20080;-82
2023/12/03 12:24:40;;;;;;;17.98;8.57;;;2.70;93.80;;;;;;5020715;28;20034;-82
2023/12/03 12:27:06;;;;;;;12.77;6.38;;;2.70;92.90;;;;;;5035786;28;20080;-81
2023/12/03 12:29:32;;;;;;;17.65;7.97;;;2.70;92.10;;;;;;5051049;28;20033;-82
2023/12/03 12:32:00;;;;;;;18.67;8.48;;;2.70;91.40;;;;;;5060063;28;20020;-82
2023/12/03 12:34:25;;;;;;;20.45;8.80;;;2.60;90.80;;;;;;5051820;28;20033;-82